Terminal Aerodrome Forecast
Issued by NWS Pendleton, OR

Home | Current Version | Previous Version | Text Only | Print | Product List | Glossary On
Versions: 1 2 3 4 5 6 7 8 9 10 11 12 13 14 15
000
FTUS46 KPDT 270500
TAFPDT
TAF
KPDT 270535Z 2706/2806 16008KT P6SM SCT050 SCT200
     FM271000 16006KT P6SM SCT050 OVC100
     FM271600 18010KT 6SM BR OVC030
     FM271900 22012G22KT 5SM -RA BR SCT020 OVC030
     FM280300 25015G25KT P6SM SCT040 BKN080=

USA.gov is the U.S. government's official web portal to all federal, state and local government web resources and services.